createdAt,value
2023-02-05T00:04:27.481Z,-4.90
2023-02-05T00:09:31.012Z,-5.00
2023-02-05T00:14:34.802Z,-5.10
2023-02-05T00:19:38.037Z,-5.20
2023-02-05T00:24:41.514Z,-5.40
2023-02-05T00:29:44.719Z,-5.60
2023-02-05T00:34:47.873Z,-5.70
2023-02-05T00:39:50.971Z,-5.90
2023-02-05T00:44:54.101Z,-6.10
2023-02-05T00:49:57.300Z,-6.10
2023-02-05T00:55:00.414Z,-6.30
2023-02-05T01:00:04.149Z,-6.40
2023-02-05T01:05:08.145Z,-6.50
2023-02-05T01:10:11.539Z,-6.60
2023-02-05T01:15:14.979Z,-6.60
2023-02-05T01:20:19.483Z,-6.70
2023-02-05T01:25:22.919Z,-6.70
2023-02-05T01:30:26.108Z,-6.80
2023-02-05T01:35:29.234Z,-6.90
2023-02-05T01:40:32.468Z,-7.00
2023-02-05T01:46:07.889Z,-6.90
2023-02-05T01:51:14.333Z,-6.80
2023-02-05T01:56:40.374Z,-6.70
2023-02-05T02:01:44.537Z,-6.50
2023-02-05T02:06:47.957Z,-6.10
2023-02-05T02:11:51.530Z,-5.80
2023-02-05T02:16:55.873Z,-5.80
2023-02-05T02:22:31.520Z,-5.90
2023-02-05T02:28:18.238Z,-5.90
2023-02-05T02:33:50.579Z,-5.80
2023-02-05T02:39:01.847Z,-6.10
2023-02-05T02:44:14.971Z,-6.20
2023-02-05T02:49:41.205Z,-6.40
2023-02-05T02:54:48.187Z,-6.60
2023-02-05T02:59:54.166Z,-6.60
2023-02-05T03:05:07.557Z,-6.70
2023-02-05T03:10:23.070Z,-6.70
2023-02-05T03:15:26.337Z,-6.90
2023-02-05T03:20:35.390Z,-7.20
2023-02-05T03:25:38.770Z,-7.10
2023-02-05T03:31:22.326Z,-7.30
2023-02-05T03:36:51.459Z,-7.60
2023-02-05T03:42:04.048Z,-7.50
2023-02-05T03:47:42.673Z,-7.40
2023-02-05T03:52:53.991Z,-7.30
2023-02-05T03:58:06.924Z,-7.50
2023-02-05T04:03:10.388Z,-7.60
2023-02-05T04:08:13.860Z,-7.70
2023-02-05T04:13:17.141Z,-7.90
2023-02-05T04:18:20.655Z,-7.90
2023-02-05T04:23:24.058Z,-7.90
2023-02-05T04:28:27.514Z,-7.90
2023-02-05T04:33:30.774Z,-7.80
2023-02-05T04:38:34.165Z,-7.70
2023-02-05T04:43:37.323Z,-7.70
2023-02-05T04:48:40.840Z,-7.90
2023-02-05T04:53:44.237Z,-8.20
2023-02-05T04:58:47.444Z,-8.40
2023-02-05T05:03:51.386Z,-8.50
2023-02-05T05:08:54.977Z,-8.80
2023-02-05T05:13:58.446Z,-9.10
2023-02-05T05:19:01.551Z,-9.20
2023-02-05T05:24:04.967Z,-9.20
2023-02-05T05:29:08.176Z,-9.30
2023-02-05T05:34:11.366Z,-9.40
2023-02-05T05:39:34.467Z,-9.40
2023-02-05T05:44:37.701Z,-9.40
2023-02-05T05:49:40.805Z,-9.40
2023-02-05T05:54:44.224Z,-9.40
2023-02-05T05:59:47.402Z,-9.50
2023-02-05T06:04:50.898Z,-9.60
2023-02-05T06:09:57.130Z,-9.70
2023-02-05T06:15:00.251Z,-9.70
2023-02-05T06:20:03.570Z,-9.80
2023-02-05T06:25:07.395Z,-10.00
2023-02-05T06:30:12.116Z,-10.00
2023-02-05T06:35:16.013Z,-10.00
2023-02-05T06:40:22.589Z,-10.00
2023-02-05T06:45:25.877Z,-10.10
2023-02-05T06:50:29.071Z,-10.00
2023-02-05T06:55:32.422Z,-10.00
2023-02-05T07:00:36.272Z,-9.90
2023-02-05T07:05:39.358Z,-9.70
2023-02-05T07:10:42.513Z,-9.40
2023-02-05T07:15:46.317Z,-9.10
2023-02-05T07:20:49.566Z,-8.80
2023-02-05T07:25:52.949Z,-8.50
2023-02-05T07:30:56.183Z,-8.00
2023-02-05T07:36:02.797Z,-7.50
2023-02-05T07:41:12.156Z,-7.10
2023-02-05T07:46:18.252Z,-6.80
2023-02-05T07:51:25.350Z,-6.80
2023-02-05T07:56:30.463Z,-7.00
2023-02-05T08:01:34.303Z,-7.30
2023-02-05T08:06:38.279Z,-7.40
2023-02-05T08:11:41.395Z,-7.50
2023-02-05T08:16:44.666Z,-7.40
2023-02-05T08:21:47.920Z,-7.00
2023-02-05T08:26:51.072Z,-6.30
2023-02-05T08:31:54.754Z,-5.80
2023-02-05T08:36:58.465Z,-5.40
2023-02-05T08:42:02.194Z,-4.80
2023-02-05T08:47:05.703Z,-4.40
2023-02-05T08:52:08.844Z,-4.00
2023-02-05T08:57:12.183Z,-3.60
2023-02-05T09:02:16.433Z,-3.40
2023-02-05T09:07:19.614Z,-3.10
2023-02-05T09:12:23.281Z,-2.90
2023-02-05T09:17:27.179Z,-2.80
2023-02-05T09:22:30.393Z,-2.50
2023-02-05T09:27:33.808Z,-2.30
2023-02-05T09:32:37.996Z,-2.00
2023-02-05T09:37:41.066Z,-1.70
2023-02-05T09:43:09.499Z,-1.80
2023-02-05T09:48:49.978Z,-1.90
2023-02-05T09:53:57.758Z,-1.80
2023-02-05T09:59:00.930Z,-1.70
2023-02-05T10:04:06.645Z,-1.60
2023-02-05T10:09:19.923Z,-1.40
2023-02-05T10:14:49.480Z,-1.00
2023-02-05T10:20:26.581Z,-0.60
2023-02-05T10:25:50.624Z,-0.50
2023-02-05T10:31:11.726Z,-0.60
2023-02-05T10:36:16.988Z,-0.60
2023-02-05T10:41:28.816Z,-0.40
2023-02-05T10:46:35.882Z,-0.10
2023-02-05T10:51:43.018Z,0.20
2023-02-05T10:56:46.845Z,0.30
2023-02-05T11:01:52.092Z,0.50
2023-02-05T11:06:55.475Z,0.80
2023-02-05T11:12:03.349Z,1.10
2023-02-05T11:17:25.153Z,1.20
2023-02-05T11:22:46.853Z,1.30
2023-02-05T11:28:01.774Z,1.30
2023-02-05T11:33:23.583Z,1.50
2023-02-05T11:38:54.364Z,1.60
2023-02-05T11:44:01.382Z,1.80
2023-02-05T11:49:05.595Z,1.90
2023-02-05T11:54:31.345Z,2.00
2023-02-05T11:59:36.784Z,2.10
2023-02-05T12:04:47.645Z,2.20
2023-02-05T12:09:56.048Z,2.10
2023-02-05T12:15:21.090Z,2.00
2023-02-05T12:20:31.108Z,2.20
2023-02-05T12:26:06.788Z,2.10
2023-02-05T12:31:41.441Z,2.30
2023-02-05T12:36:54.296Z,2.20
2023-02-05T12:42:17.190Z,1.90
2023-02-05T12:47:36.492Z,1.80
2023-02-05T12:53:16.034Z,2.00
2023-02-05T12:58:21.399Z,2.20
2023-02-05T13:03:30.505Z,2.30
2023-02-05T13:08:49.507Z,2.30
2023-02-05T13:14:09.758Z,2.20
2023-02-05T13:19:27.304Z,2.20
2023-02-05T13:25:24.667Z,2.20
2023-02-05T13:30:45.013Z,2.20
2023-02-05T13:36:25.541Z,2.30
2023-02-05T13:41:49.235Z,2.50
2023-02-05T13:47:20.299Z,2.50
2023-02-05T13:52:46.487Z,2.50
2023-02-05T13:58:15.943Z,2.50
2023-02-05T14:03:34.062Z,2.40
2023-02-05T14:08:40.834Z,2.30
2023-02-05T14:14:33.866Z,2.30
2023-02-05T14:19:47.308Z,2.20
2023-02-05T14:24:51.868Z,2.10
2023-02-05T14:29:57.999Z,1.90
2023-02-05T14:35:04.197Z,1.80
2023-02-05T14:40:30.140Z,1.70
2023-02-05T14:45:36.280Z,1.60
2023-02-05T14:50:42.507Z,1.40
2023-02-05T14:55:50.944Z,1.30
2023-02-05T15:01:52.291Z,1.10
2023-02-05T15:07:02.011Z,0.80
2023-02-05T15:12:09.124Z,0.50
2023-02-05T15:17:15.912Z,0.30
2023-02-05T15:22:44.595Z,0.10
2023-02-05T15:28:07.915Z,0.00
2023-02-05T15:33:32.444Z,-0.10
2023-02-05T15:38:47.083Z,-0.30
2023-02-05T15:44:03.881Z,-0.40
2023-02-05T15:49:10.036Z,-0.50
2023-02-05T15:54:21.236Z,-0.60
2023-02-05T15:59:32.379Z,-0.70
2023-02-05T16:04:42.082Z,-0.90
2023-02-05T16:09:50.298Z,-1.10
2023-02-05T16:15:02.087Z,-1.20
2023-02-05T16:20:19.835Z,-1.30
2023-02-05T16:26:05.830Z,-1.40
2023-02-05T16:31:26.002Z,-1.60
2023-02-05T16:36:43.837Z,-1.60
2023-02-05T16:42:08.080Z,-1.90
2023-02-05T16:47:14.799Z,-2.10
2023-02-05T16:52:33.933Z,-2.30
2023-02-05T16:57:41.786Z,-2.30
2023-02-05T17:02:50.648Z,-2.40
2023-02-05T17:07:59.622Z,-2.40
2023-02-05T17:13:07.183Z,-2.40
2023-02-05T17:18:27.816Z,-2.50
2023-02-05T17:23:36.261Z,-2.60
2023-02-05T17:28:45.675Z,-2.70
2023-02-05T17:33:53.893Z,-2.70
2023-02-05T17:39:04.678Z,-2.80
2023-02-05T17:44:23.861Z,-2.90
2023-02-05T17:49:29.607Z,-3.20
2023-02-05T17:54:35.615Z,-3.60
2023-02-05T17:59:43.074Z,-4.10
2023-02-05T18:04:50.475Z,-4.30
2023-02-05T18:09:55.935Z,-4.30
2023-02-05T18:15:07.218Z,-4.30
2023-02-05T18:20:14.124Z,-4.30
2023-02-05T18:25:20.077Z,-4.40
2023-02-05T18:30:25.115Z,-4.40
2023-02-05T18:35:33.892Z,-4.50
2023-02-05T18:40:39.459Z,-4.60
2023-02-05T18:45:48.079Z,-4.70
2023-02-05T18:50:52.846Z,-4.70
2023-02-05T18:56:07.523Z,-4.80
2023-02-05T19:01:40.628Z,-4.80
2023-02-05T19:06:54.334Z,-4.90
2023-02-05T19:12:00.034Z,-5.10
2023-02-05T19:17:05.270Z,-5.10
2023-02-05T19:22:11.150Z,-5.30
2023-02-05T19:27:18.309Z,-5.30
2023-02-05T19:32:26.108Z,-5.30
2023-02-05T19:37:34.327Z,-5.30
2023-02-05T19:42:43.691Z,-5.20
2023-02-05T19:47:52.039Z,-5.20
2023-02-05T19:53:02.434Z,-5.10
2023-02-05T19:58:07.796Z,-5.00
2023-02-05T20:03:12.575Z,-5.00
2023-02-05T20:08:20.636Z,-5.20
2023-02-05T20:13:39.515Z,-5.20
2023-02-05T20:18:45.289Z,-5.20
2023-02-05T20:23:52.391Z,-5.30
2023-02-05T20:29:18.481Z,-5.30
2023-02-05T20:34:35.543Z,-5.30
2023-02-05T20:39:44.267Z,-5.40
2023-02-05T20:44:50.049Z,-5.40
2023-02-05T20:49:55.129Z,-5.40
2023-02-05T20:55:02.689Z,-5.50
2023-02-05T21:00:12.379Z,-5.70
2023-02-05T21:05:21.150Z,-5.90
2023-02-05T21:10:25.950Z,-6.00
2023-02-05T21:15:33.197Z,-6.10
2023-02-05T21:20:39.209Z,-6.10
2023-02-05T21:25:43.226Z,-6.10
2023-02-05T21:30:52.414Z,-6.20
2023-02-05T21:35:58.958Z,-6.30
2023-02-05T21:41:17.530Z,-6.30
2023-02-05T21:46:22.491Z,-6.30
2023-02-05T21:51:29.391Z,-6.30
2023-02-05T21:56:39.166Z,-6.30
2023-02-05T22:01:43.617Z,-6.40
2023-02-05T22:06:47.836Z,-6.30
2023-02-05T22:11:52.013Z,-6.20
2023-02-05T22:16:55.676Z,-6.20
2023-02-05T22:21:58.998Z,-6.20
2023-02-05T22:27:03.095Z,-6.20
2023-02-05T22:32:08.000Z,-6.20
2023-02-05T22:37:58.014Z,-6.20
2023-02-05T22:43:01.559Z,-6.10
2023-02-05T22:48:04.933Z,-6.00
2023-02-05T22:53:09.374Z,-6.10
2023-02-05T22:58:13.035Z,-6.00
2023-02-05T23:03:16.452Z,-6.00
2023-02-05T23:08:20.273Z,-5.90
2023-02-05T23:13:23.732Z,-5.80
2023-02-05T23:18:27.229Z,-5.80
2023-02-05T23:23:30.519Z,-5.70
2023-02-05T23:28:34.188Z,-5.80
2023-02-05T23:33:38.039Z,-5.80
2023-02-05T23:38:41.451Z,-5.90
2023-02-05T23:43:44.928Z,-5.90
2023-02-05T23:48:48.232Z,-5.80
2023-02-05T23:53:51.956Z,-5.80
2023-02-05T23:58:55.953Z,-5.90
